Time;durP1;ratioP1;P1;durP2;ratioP2;P2;SDS_P1;SDS_P2;PMS_P1;PMS_P2;Temp;Humidity;BMP_temperature;BMP_pressure;BME280_temperature;BME280_humidity;BME280_pressure;Samples;Min_cycle;Max_cycle;Signal;HPM_P1;HPM_P2
2021/09/09 00:01:44;;;;;;;15.60;11.20;;;;;;;21.61;67.40;99855.28;5015110;28;20041;-92
2021/09/09 00:04:09;;;;;;;16.05;10.48;;;;;;;21.56;67.00;99854.00;5015392;28;20077;-91
2021/09/09 00:06:35;;;;;;;16.85;10.50;;;;;;;21.50;67.22;99851.25;5014814;28;20076;-91
2021/09/09 00:09:00;;;;;;;20.70;10.35;;;;;;;21.52;67.84;99857.22;5014865;28;20033;-91
2021/09/09 00:11:26;;;;;;;21.92;10.88;;;;;;;21.48;68.00;99861.31;5014362;28;20436;-90
2021/09/09 00:13:51;;;;;;;18.23;11.60;;;;;;;21.33;68.20;99856.81;5020686;28;20113;-90
2021/09/09 00:16:17;;;;;;;13.38;10.90;;;;;;;21.34;68.50;99858.44;5014934;28;20388;-91
2021/09/09 00:18:42;;;;;;;13.75;10.65;;;;;;;21.42;68.79;99856.69;5014618;28;20034;-91
2021/09/09 00:21:08;;;;;;;15.20;11.30;;;;;;;21.48;69.06;99862.13;5014741;28;20030;-91
2021/09/09 00:23:33;;;;;;;13.60;11.00;;;;;;;21.51;69.48;99864.44;5014565;28;20424;-90
2021/09/09 00:25:58;;;;;;;17.30;12.23;;;;;;;21.59;70.43;99856.28;5014143;28;20034;-91
2021/09/09 00:28:24;;;;;;;23.08;13.43;;;;;;;21.60;71.08;99851.75;5014005;28;20030;-90
2021/09/09 00:30:51;;;;;;;16.30;12.48;;;;;;;21.72;71.17;99847.59;5013945;28;20491;-90
2021/09/09 00:33:18;;;;;;;14.95;11.68;;;;;;;21.81;70.58;99847.47;5013031;28;20057;-90
2021/09/09 00:35:43;;;;;;;20.77;11.07;;;;;;;21.84;70.59;99844.41;5014268;28;20037;-91
2021/09/09 00:38:09;;;;;;;15.90;11.50;;;;;;;21.88;70.90;99840.31;5012752;28;20022;-90
2021/09/09 00:40:34;;;;;;;18.13;11.25;;;;;;;21.91;69.89;99839.94;5014132;28;20025;-90
2021/09/09 00:42:59;;;;;;;12.75;10.10;;;;;;;21.94;69.63;99837.72;5014209;28;20030;-91
2021/09/09 00:45:26;;;;;;;20.20;11.40;;;;;;;21.92;69.68;99834.41;5012663;28;20467;-90
2021/09/09 00:47:51;;;;;;;16.55;11.35;;;;;;;21.98;69.41;99836.31;5014017;28;20033;-91
2021/09/09 00:50:16;;;;;;;14.85;10.85;;;;;;;21.96;69.31;99833.00;5014315;28;20018;-91
2021/09/09 00:52:47;;;;;;;14.25;11.52;;;;;;;21.94;69.88;99828.88;5013127;28;20034;-90
2021/09/09 00:55:13;;;;;;;18.27;12.48;;;;;;;21.74;70.58;99824.19;5015098;28;20033;-90
2021/09/09 00:57:39;;;;;;;18.45;11.68;;;;;;;21.80;70.95;99827.94;5029109;28;20026;-89
2021/09/09 01:00:06;;;;;;;19.10;11.27;;;;;;;21.87;70.33;99817.31;5030160;28;20032;-90
2021/09/09 01:02:32;;;;;;;16.33;10.82;;;;;;;21.88;69.86;99813.59;5023221;28;20033;-90
2021/09/09 01:04:57;;;;;;;13.77;9.52;;;;;;;21.92;70.01;99809.50;5013677;28;20030;-90
2021/09/09 01:07:25;;;;;;;17.38;12.55;;;;;;;21.97;69.72;99809.78;5013679;28;20159;-90
2021/09/09 01:09:51;;;;;;;15.00;11.43;;;;;;;21.93;69.80;99811.19;5013726;28;20057;-90
2021/09/09 01:12:16;;;;;;;22.90;13.60;;;;;;;21.82;70.02;99806.34;5013386;28;20060;-91
2021/09/09 01:14:42;;;;;;;18.00;11.88;;;;;;;21.84;70.62;99812.31;5011901;28;20492;-91
2021/09/09 01:17:07;;;;;;;16.02;11.70;;;;;;;21.89;70.70;99809.91;5013037;28;20029;-90
2021/09/09 01:19:33;;;;;;;18.33;12.57;;;;;;;21.93;70.84;99805.84;5013049;28;20033;-90
2021/09/09 01:21:58;;;;;;;15.02;11.85;;;;;;;21.93;70.94;99814.69;5013073;28;20034;-90
2021/09/09 01:24:24;;;;;;;14.73;11.27;;;;;;;21.96;70.88;99810.81;5013109;28;20026;-90
2021/09/09 01:26:55;;;;;;;18.13;13.32;;;;;;;22.04;70.64;99807.16;5013148;28;20061;-91
2021/09/09 01:29:23;;;;;;;19.88;14.07;;;;;;;22.00;70.92;99806.72;5013107;28;20392;-90
2021/09/09 01:31:48;;;;;;;20.65;14.63;;;;;;;21.97;70.93;99809.78;5013108;28;20030;-91
2021/09/09 01:34:14;;;;;;;21.30;14.55;;;;;;;22.00;71.18;99812.06;5012401;28;20037;-90
2021/09/09 01:36:40;;;;;;;20.45;13.98;;;;;;;21.96;71.02;99816.16;5012728;28;20072;-90
2021/09/09 01:39:05;;;;;;;19.05;11.93;;;;;;;21.97;70.60;99807.91;5012993;28;20037;-90
2021/09/09 01:41:30;;;;;;;17.27;12.35;;;;;;;21.88;70.43;99798.41;5012921;28;20104;-90
2021/09/09 01:43:56;;;;;;;12.98;11.48;;;;;;;21.90;70.38;99804.38;5012877;28;20060;-91
2021/09/09 01:46:21;;;;;;;14.85;12.10;;;;;;;22.05;69.83;99808.81;5012981;28;20034;-90
2021/09/09 01:48:47;;;;;;;16.98;12.27;;;;;;;21.92;69.54;99812.19;5011527;28;20373;-91
2021/09/09 01:51:12;;;;;;;18.50;12.07;;;;;;;21.85;70.43;99803.31;5011359;28;20025;-91
2021/09/09 01:53:37;;;;;;;17.88;11.48;;;;;;;21.88;70.24;99793.06;5012807;28;20029;-90
2021/09/09 01:56:03;;;;;;;17.52;11.30;;;;;;;21.87;70.11;99793.25;5012453;28;20108;-91
2021/09/09 01:58:28;;;;;;;15.52;12.57;;;;;;;21.83;70.08;99786.63;5012507;28;20021;-90
2021/09/09 02:00:57;;;;;;;18.67;13.77;;;;;;;21.80;70.56;99795.88;5012397;28;20396;-91
2021/09/09 02:03:23;;;;;;;20.13;12.82;;;;;;;21.63;69.93;99787.28;5012264;28;20179;-91
2021/09/09 02:05:48;;;;;;;17.10;12.68;;;;;;;21.45;70.81;99794.94;5012187;28;20026;-90
2021/09/09 02:08:13;;;;;;;17.60;12.50;;;;;;;21.55;70.25;99782.06;5012141;28;20376;-90
2021/09/09 02:10:39;;;;;;;19.25;12.02;;;;;;;21.33;70.81;99787.38;5012383;28;20034;-90
2021/09/09 02:13:04;;;;;;;17.63;12.50;;;;;;;21.43;70.58;99794.25;5012206;28;20380;-90
2021/09/09 02:15:29;;;;;;;19.65;13.55;;;;;;;21.42;70.36;99800.59;5012151;28;20034;-90
2021/09/09 02:17:55;;;;;;;17.52;12.75;;;;;;;21.23;70.90;99786.00;5012207;28;20064;-91
2021/09/09 02:20:20;;;;;;;15.68;12.30;;;;;;;21.18;71.09;99790.06;5010175;28;20021;-90
2021/09/09 02:22:45;;;;;;;17.52;12.82;;;;;;;21.04;71.28;99795.47;5012207;28;20563;-90
2021/09/09 02:25:11;;;;;;;15.25;12.18;;;;;;;20.96;71.64;99799.88;5012093;28;20065;-90
2021/09/09 02:27:36;;;;;;;16.85;11.98;;;;;;;20.93;72.48;99799.44;5012165;28;20073;-90
2021/09/09 02:30:03;;;;;;;17.33;14.05;;;;;;;21.07;71.58;99797.75;5010769;28;20112;-91
2021/09/09 02:32:28;;;;;;;23.50;13.68;;;;;;;21.02;71.89;99802.84;5012015;28;20029;-89
2021/09/09 02:34:53;;;;;;;21.52;13.93;;;;;;;21.20;71.31;99800.56;5011782;28;20030;-90
2021/09/09 02:37:19;;;;;;;19.15;14.40;;;;;;;21.25;71.29;99803.53;5012060;28;20033;-90
2021/09/09 02:39:47;;;;;;;23.30;16.10;;;;;;;21.03;72.57;99791.13;5012263;28;20034;-89
2021/09/09 02:42:13;;;;;;;24.30;16.27;;;;;;;21.01;73.38;99788.66;5012142;28;20030;-90
2021/09/09 02:44:38;;;;;;;23.80;15.32;;;;;;;20.97;73.74;99790.88;5010715;28;20022;-90
2021/09/09 02:47:04;;;;;;;20.10;14.57;;;;;;;20.95;73.84;99781.38;5013488;28;20034;-90
2021/09/09 02:49:29;;;;;;;24.33;15.02;;;;;;;20.93;73.49;99784.25;5015408;28;20080;-90
2021/09/09 02:51:55;;;;;;;19.17;13.98;;;;;;;20.89;73.07;99788.31;5015773;28;20030;-90
2021/09/09 02:54:20;;;;;;;19.77;14.00;;;;;;;20.88;72.86;99789.31;5015907;28;20105;-90
2021/09/09 02:56:45;;;;;;;20.63;14.98;;;;;;;20.86;72.84;99787.88;5014246;28;20037;-90
2021/09/09 02:59:11;;;;;;;19.08;14.32;;;;;;;20.87;73.79;99779.66;5014506;28;20472;-90
2021/09/09 03:01:38;;;;;;;20.63;14.40;;;;;;;20.92;73.98;99779.94;5015621;28;20503;-91
2021/09/09 03:04:04;;;;;;;24.52;14.90;;;;;;;20.85;75.25;99780.84;5015353;28;20060;-91
2021/09/09 03:06:29;;;;;;;20.67;15.80;;;;;;;20.87;75.46;99784.16;5015195;28;20058;-90
2021/09/09 03:08:54;;;;;;;19.67;13.82;;;;;;;20.87;76.48;99794.84;5015651;28;20022;-90
2021/09/09 03:11:20;;;;;;;19.60;15.40;;;;;;;20.88;76.52;99775.97;5015473;28;20034;-90
2021/09/09 03:13:45;;;;;;;22.25;15.18;;;;;;;20.90;76.62;99776.63;5015308;28;20102;-90
2021/09/09 03:16:10;;;;;;;27.17;19.63;;;;;;;21.04;76.52;99768.78;5015359;28;20083;-91
2021/09/09 03:18:36;;;;;;;31.70;20.98;;;;;;;21.05;76.89;99779.28;5015682;28;20065;-90
2021/09/09 03:21:01;;;;;;;27.38;18.92;;;;;;;21.19;76.59;99773.06;5015123;28;20109;-91
2021/09/09 03:23:27;;;;;;;28.77;20.30;;;;;;;21.27;76.13;99769.44;5015355;28;20095;-90
2021/09/09 03:25:52;;;;;;;28.75;19.02;;;;;;;21.35;75.91;99779.19;5017066;28;20565;-90
2021/09/09 03:28:17;;;;;;;24.40;17.20;;;;;;;21.35;75.37;99776.50;5016919;28;20048;-90
2021/09/09 03:30:43;;;;;;;25.05;17.58;;;;;;;21.24;75.28;99782.34;5015913;28;20112;-90
2021/09/09 03:33:08;;;;;;;22.17;16.67;;;;;;;21.19;75.43;99782.91;5015810;28;20032;-91
2021/09/09 03:35:33;;;;;;;29.42;18.60;;;;;;;21.19;75.25;99783.75;5015953;28;20061;-90
2021/09/09 03:37:59;;;;;;;20.88;16.10;;;;;;;21.21;75.71;99780.88;5016285;28;20057;-89
2021/09/09 03:40:24;;;;;;;22.52;17.23;;;;;;;21.29;75.31;99783.44;5014896;28;20484;-90
2021/09/09 03:42:49;;;;;;;23.52;17.48;;;;;;;21.32;74.95;99775.03;5015476;28;20044;-90
2021/09/09 03:45:15;;;;;;;24.50;16.45;;;;;;;21.36;74.80;99778.97;5015147;28;20053;-90
2021/09/09 03:47:40;;;;;;;22.48;16.17;;;;;;;21.51;73.77;99765.59;5013650;28;20053;-91
2021/09/09 03:50:06;;;;;;;27.55;19.70;;;;;;;21.43;73.56;99759.53;5013704;28;20018;-90
2021/09/09 03:52:31;;;;;;;25.42;18.10;;;;;;;21.41;74.22;99751.72;5014399;28;20026;-90
2021/09/09 03:54:57;;;;;;;25.75;17.95;;;;;;;21.47;73.66;99759.00;5014638;28;20029;-90
2021/09/09 03:57:23;;;;;;;25.05;18.13;;;;;;;21.54;73.27;99759.03;5014192;28;20028;-90
2021/09/09 03:59:49;;;;;;;25.98;18.52;;;;;;;21.44;74.31;99746.00;5013497;28;20042;-90
2021/09/09 04:02:15;;;;;;;30.08;21.02;;;;;;;21.34;74.79;99746.28;5014807;28;20101;-90
2021/09/09 04:04:41;;;;;;;26.25;18.50;;;;;;;21.40;74.78;99744.72;5014630;28;20025;-90
2021/09/09 04:07:06;;;;;;;32.83;21.35;;;;;;;21.32;74.25;99744.84;5014004;28;20389;-90
2021/09/09 04:09:32;;;;;;;25.13;19.42;;;;;;;21.26;75.68;99741.06;5014132;28;20389;-90
2021/09/09 04:11:57;;;;;;;29.58;19.90;;;;;;;21.19;76.07;99746.38;5013033;28;20030;-90
2021/09/09 04:14:22;;;;;;;27.00;17.88;;;;;;;21.29;75.63;99750.56;5014395;28;20030;-90
2021/09/09 04:16:48;;;;;;;26.25;18.52;;;;;;;21.26;75.36;99741.06;5014217;28;20029;-90
2021/09/09 04:19:13;;;;;;;31.35;18.58;;;;;;;21.19;75.53;99738.34;5014375;28;20030;-90
2021/09/09 04:21:39;;;;;;;28.55;17.48;;;;;;;21.13;76.23;99735.59;5014041;28;20061;-90
2021/09/09 04:24:04;;;;;;;23.73;18.02;;;;;;;21.07;76.11;99737.22;5013916;28;20029;-90
2021/09/09 04:26:30;;;;;;;28.27;17.95;;;;;;;21.05;76.96;99733.91;5014148;28;20456;-90
2021/09/09 04:28:55;;;;;;;21.98;17.83;;;;;;;21.09;76.46;99734.31;5013955;28;20022;-90
2021/09/09 04:31:20;;;;;;;24.00;18.25;;;;;;;21.07;76.65;99731.88;5013574;28;20030;-90
2021/09/09 04:33:46;;;;;;;25.27;18.13;;;;;;;21.06;76.87;99742.72;5012817;28;20024;-90
2021/09/09 04:36:11;;;;;;;32.15;21.23;;;;;;;21.08;76.26;99741.50;5013863;28;20029;-90
2021/09/09 04:38:36;;;;;;;28.15;19.70;;;;;;;21.11;76.30;99738.47;5014001;28;20104;-90
2021/09/09 04:41:02;;;;;;;26.63;18.45;;;;;;;21.15;75.92;99744.28;5014178;28;20061;-90
2021/09/09 04:43:27;;;;;;;24.65;17.50;;;;;;;21.12;75.75;99745.44;5013597;28;20041;-90
2021/09/09 04:45:52;;;;;;;30.58;17.75;;;;;;;21.12;76.10;99749.97;5012464;28;20480;-90
2021/09/09 04:48:18;;;;;;;23.63;17.73;;;;;;;21.10;76.38;99746.66;5013849;28;20025;-90
2021/09/09 04:50:43;;;;;;;23.08;17.27;;;;;;;21.10;76.28;99741.34;5013683;28;20105;-90
2021/09/09 04:53:09;;;;;;;24.90;17.83;;;;;;;21.11;76.34;99743.81;5013566;28;20022;-90
2021/09/09 04:55:35;;;;;;;28.50;19.35;;;;;;;21.14;76.38;99745.28;5012129;28;20029;-90
2021/09/09 04:58:00;;;;;;;27.83;19.13;;;;;;;21.13;76.19;99736.44;5012678;28;20057;-90
2021/09/09 05:00:26;;;;;;;31.48;20.70;;;;;;;21.15;76.53;99734.41;5012373;28;20034;-90
2021/09/09 05:02:51;;;;;;;26.60;18.70;;;;;;;21.17;76.52;99740.38;5013643;28;20026;-90
2021/09/09 05:05:17;;;;;;;30.98;20.10;;;;;;;21.14;76.48;99731.94;5013324;28;20021;-90
2021/09/09 05:07:42;;;;;;;25.85;18.63;;;;;;;21.11;77.15;99724.28;5013469;28;20033;-90
2021/09/09 05:10:10;;;;;;;24.35;18.42;;;;;;;21.17;76.67;99726.22;5012614;28;20041;-90
2021/09/09 05:12:35;;;;;;;22.10;17.35;;;;;;;21.12;77.10;99725.94;5012976;28;20129;-90
2021/09/09 05:15:01;;;;;;;25.20;17.77;;;;;;;21.13;77.02;99719.59;5012814;28;20124;-89
2021/09/09 05:17:26;;;;;;;24.73;18.30;;;;;;;21.10;76.91;99722.66;5013302;28;20028;-90
2021/09/09 05:19:52;;;;;;;27.23;19.73;;;;;;;21.09;77.14;99719.16;5013488;28;20425;-90
2021/09/09 05:22:17;;;;;;;22.13;17.48;;;;;;;21.11;76.55;99718.94;5013428;28;20030;-90
2021/09/09 05:24:42;;;;;;;26.05;19.25;;;;;;;21.06;76.80;99722.19;5012979;28;20388;-90
2021/09/09 05:27:07;;;;;;;25.40;17.80;;;;;;;21.11;77.05;99726.94;5012862;28;20030;-90
2021/09/09 05:29:33;;;;;;;21.88;16.25;;;;;;;21.09;76.23;99727.16;5012817;28;20026;-90
2021/09/09 05:31:58;;;;;;;20.13;16.02;;;;;;;21.10;76.44;99728.81;5013016;28;20026;-89
2021/09/09 05:34:23;;;;;;;23.00;17.02;;;;;;;21.07;76.45;99723.84;5011636;28;20045;-90
2021/09/09 05:36:49;;;;;;;24.20;17.88;;;;;;;21.08;76.52;99722.00;4996660;28;20038;-90
2021/09/09 05:39:14;;;;;;;25.95;18.23;;;;;;;21.04;77.31;99720.75;4992767;28;20022;-90
2021/09/09 05:41:40;;;;;;;22.65;16.55;;;;;;;21.05;76.77;99725.03;4998481;28;20026;-90
2021/09/09 05:44:05;;;;;;;21.23;15.43;;;;;;;21.07;76.68;99725.69;5006592;28;20022;-90
2021/09/09 05:46:30;;;;;;;20.58;15.45;;;;;;;21.07;76.87;99731.03;5007977;28;20037;-90
2021/09/09 05:48:56;;;;;;;21.02;15.73;;;;;;;21.13;76.41;99728.44;5007008;28;20030;-90
2021/09/09 05:51:21;;;;;;;28.73;19.35;;;;;;;21.11;76.97;99718.94;5009646;28;20149;-91
2021/09/09 05:53:46;;;;;;;31.90;20.40;;;;;;;20.90;77.99;99715.25;5005239;28;20046;-89
2021/09/09 05:56:12;;;;;;;27.05;20.30;;;;;;;20.93;78.55;99712.22;4991469;28;20033;-94
2021/09/09 05:58:38;;;;;;;25.48;17.95;;;;;;;21.03;78.10;99724.41;4998144;28;20017;-89
2021/09/09 06:01:05;;;;;;;25.10;17.00;;;;;;;21.07;78.12;99725.69;5010801;28;20030;-90
2021/09/09 06:03:31;;;;;;;26.20;18.08;;;;;;;21.08;77.57;99724.69;5002154;28;20026;-93
2021/09/09 06:06:04;;;;;;;25.40;18.67;;;;;;;21.16;77.25;99735.22;4992274;28;20039;-88
2021/09/09 06:08:34;;;;;;;24.83;18.10;;;;;;;21.27;76.77;99724.06;5008554;28;20504;-89
2021/09/09 06:10:59;;;;;;;20.65;15.32;;;;;;;21.27;76.97;99728.53;5011117;28;20034;-89
2021/09/09 06:13:24;;;;;;;21.85;16.05;;;;;;;21.28;77.03;99716.88;5010729;28;20029;-88
2021/09/09 06:15:50;;;;;;;22.08;16.98;;;;;;;21.30;76.67;99721.00;5010143;28;20037;-89
2021/09/09 06:18:15;;;;;;;22.85;15.75;;;;;;;21.33;76.60;99728.63;5011848;28;20038;-89
2021/09/09 06:20:41;;;;;;;21.95;16.13;;;;;;;21.38;76.73;99728.03;5011996;28;20033;-89
2021/09/09 06:23:06;;;;;;;23.70;17.45;;;;;;;21.37;76.52;99735.25;5012199;28;20424;-89
2021/09/09 06:25:31;;;;;;;24.05;18.02;;;;;;;21.27;77.63;99734.75;5011999;28;20033;-89
2021/09/09 06:27:57;;;;;;;30.75;19.60;;;;;;;21.46;76.47;99735.13;5011350;28;20022;-92
2021/09/09 06:30:22;;;;;;;25.05;17.25;;;;;;;21.46;76.54;99735.13;5011836;28;20496;-87
2021/09/09 06:32:48;;;;;;;22.30;16.77;;;;;;;21.45;76.48;99726.31;5011447;28;20026;-87
2021/09/09 06:35:13;;;;;;;23.17;16.67;;;;;;;21.48;76.32;99733.09;5011781;28;20087;-87
2021/09/09 06:37:39;;;;;;;25.38;17.45;;;;;;;21.54;76.10;99733.19;5012520;28;20022;-87
2021/09/09 06:40:06;;;;;;;19.90;14.88;;;;;;;21.59;75.97;99735.25;5012129;28;20052;-87
2021/09/09 06:42:32;;;;;;;20.65;15.75;;;;;;;21.57;75.96;99730.09;5011843;28;20067;-87
2021/09/09 06:44:57;;;;;;;20.20;14.95;;;;;;;21.60;75.77;99739.56;5012701;28;20492;-86
2021/09/09 06:47:22;;;;;;;21.85;16.23;;;;;;;21.62;75.73;99739.38;5019758;28;20436;-87
2021/09/09 06:49:48;;;;;;;21.17;15.52;;;;;;;21.61;75.65;99746.59;5020116;28;20032;-87
2021/09/09 06:52:13;;;;;;;21.20;16.35;;;;;;;21.62;75.46;99737.53;5019133;28;20104;-86
2021/09/09 06:54:38;;;;;;;25.27;18.15;;;;;;;21.65;75.13;99742.50;5012690;28;20025;-87
2021/09/09 06:57:04;;;;;;;19.88;14.50;;;;;;;21.72;74.99;99740.72;5011854;28;20026;-87
2021/09/09 06:59:29;;;;;;;19.40;14.80;;;;;;;21.69;75.54;99738.44;5014534;28;20029;-87
2021/09/09 07:01:55;;;;;;;20.83;15.20;;;;;;;21.69;75.65;99741.09;5011482;28;20054;-87
2021/09/09 07:04:20;;;;;;;19.70;14.70;;;;;;;21.68;75.67;99734.13;5011294;28;20030;-87
2021/09/09 07:06:45;;;;;;;21.65;16.38;;;;;;;21.68;75.85;99733.28;5011239;28;20061;-88
2021/09/09 07:09:11;;;;;;;25.35;16.88;;;;;;;21.66;76.18;99741.47;5011284;28;20507;-87
2021/09/09 07:11:36;;;;;;;22.08;15.63;;;;;;;21.67;76.18;99732.44;5011829;28;20426;-87
2021/09/09 07:14:02;;;;;;;19.45;15.68;;;;;;;21.68;76.45;99733.28;5011625;28;20022;-87
2021/09/09 07:16:27;;;;;;;19.00;14.85;;;;;;;21.78;76.17;99736.44;4995778;28;20034;-87
2021/09/09 07:18:52;;;;;;;23.77;17.23;;;;;;;21.76;76.26;99733.97;4991914;28;20118;-88
2021/09/09 07:21:18;;;;;;;23.88;16.88;;;;;;;21.83;76.04;99734.00;4992471;28;20449;-87
2021/09/09 07:23:44;;;;;;;21.15;15.68;;;;;;;21.92;75.58;99735.53;4997673;28;20056;-88
2021/09/09 07:26:10;;;;;;;23.83;15.95;;;;;;;21.98;75.51;99725.91;4996584;28;20026;-87
2021/09/09 07:28:35;;;;;;;16.70;12.52;;;;;;;22.08;74.95;99731.72;5001923;28;20018;-87
2021/09/09 07:31:00;;;;;;;20.13;15.15;;;;;;;22.05;74.62;99723.28;4997722;28;20372;-87
2021/09/09 07:33:26;;;;;;;22.15;14.35;;;;;;;22.14;74.11;99724.78;4992781;28;20101;-87
2021/09/09 07:35:51;;;;;;;18.42;13.18;;;;;;;22.21;74.00;99727.47;4998303;28;20034;-86
2021/09/09 07:38:17;;;;;;;20.73;13.68;;;;;;;22.16;73.75;99728.91;5006028;28;20026;-87
2021/09/09 07:40:42;;;;;;;15.43;12.57;;;;;;;22.17;73.82;99730.53;5014586;28;20025;-87
2021/09/09 07:43:09;;;;;;;15.68;12.13;;;;;;;22.23;73.33;99731.59;5014966;28;20084;-87
2021/09/09 07:45:34;;;;;;;18.73;12.25;;;;;;;22.21;73.46;99732.81;5014537;28;20034;-87
2021/09/09 07:47:59;;;;;;;18.52;13.70;;;;;;;22.30;72.93;99731.69;5014808;28;20032;-87
2021/09/09 07:50:25;;;;;;;16.15;13.18;;;;;;;22.36;72.21;99736.25;5014843;28;20058;-87
2021/09/09 07:52:50;;;;;;;15.18;12.15;;;;;;;22.38;72.36;99734.19;5014766;28;20014;-88
2021/09/09 07:55:16;;;;;;;22.00;13.73;;;;;;;22.30;72.72;99734.38;5014481;28;20061;-88
2021/09/09 07:57:45;;;;;;;16.40;11.65;;;;;;;22.43;72.52;99723.72;5014497;28;20026;-87
2021/09/09 08:00:11;;;;;;;18.95;12.88;;;;;;;22.32;73.75;99726.97;5014584;28;20017;-87
2021/09/09 08:02:37;;;;;;;16.33;12.27;;;;;;;22.25;74.45;99724.25;5014432;28;20029;-88
2021/09/09 08:05:03;;;;;;;17.45;12.27;;;;;;;22.32;74.34;99724.28;5014442;28;20033;-87
2021/09/09 08:07:28;;;;;;;12.32;9.73;;;;;;;22.43;73.37;99723.72;5014535;28;20555;-87
2021/09/09 08:09:54;;;;;;;14.23;10.10;;;;;;;22.52;73.76;99719.84;5014442;28;20485;-88
2021/09/09 08:12:19;;;;;;;11.55;9.48;;;;;;;22.65;73.06;99720.94;5014313;28;20531;-87
2021/09/09 08:14:44;;;;;;;13.07;9.57;;;;;;;22.73;72.20;99720.78;5014307;28;20033;-87
2021/09/09 08:17:10;;;;;;;10.23;8.07;;;;;;;22.82;71.38;99716.88;5013871;28;20088;-87
2021/09/09 08:19:35;;;;;;;11.32;8.48;;;;;;;22.78;71.17;99712.97;5013840;28;20025;-87
2021/09/09 08:22:01;;;;;;;11.05;8.02;;;;;;;22.70;71.23;99721.16;5014227;28;20022;-87
2021/09/09 08:24:26;;;;;;;13.55;8.23;;;;;;;22.61;72.07;99731.22;5014138;28;20026;-87
2021/09/09 08:26:51;;;;;;;10.63;7.30;;;;;;;22.61;72.50;99727.72;5013363;28;20488;-87
2021/09/09 08:29:17;;;;;;;8.60;6.47;;;;;;;22.51;72.80;99734.28;5013571;28;20022;-87
2021/09/09 08:31:43;;;;;;;11.00;6.95;;;;;;;22.36;71.98;99731.72;5013859;28;20096;-88
2021/09/09 08:34:08;;;;;;;8.20;6.30;;;;;;;22.40;72.93;99734.81;5009067;28;20034;-87
2021/09/09 08:36:34;;;;;;;10.68;8.25;;;;;;;22.30;73.94;99729.00;5013358;28;20029;-87
2021/09/09 08:38:59;;;;;;;8.73;6.78;;;;;;;22.33;73.63;99732.13;5013797;28;20052;-87
2021/09/09 08:41:25;;;;;;;9.07;6.30;;;;;;;22.35;72.87;99731.91;5013831;28;20033;-87
2021/09/09 08:43:50;;;;;;;7.63;5.97;;;;;;;22.31;73.16;99728.78;5013637;28;20030;-87
2021/09/09 08:46:17;;;;;;;12.52;6.25;;;;;;;22.38;72.83;99729.66;5013703;28;20030;-87
2021/09/09 08:48:44;;;;;;;6.53;5.40;;;;;;;22.31;73.07;99730.66;5013487;28;20029;-87
2021/09/09 08:51:11;;;;;;;7.85;5.53;;;;;;;22.28;73.33;99731.06;5013416;28;20026;-87
2021/09/09 08:53:40;;;;;;;7.22;5.65;;;;;;;22.34;73.81;99727.59;5013496;28;20555;-87
2021/09/09 08:56:05;;;;;;;9.18;5.80;;;;;;;22.34;74.52;99736.44;5013314;28;20034;-88
2021/09/09 08:58:33;;;;;;;13.15;5.70;;;;;;;22.34;75.25;99735.63;5013152;28;20026;-88
2021/09/09 09:01:06;;;;;;;7.88;5.78;;;;;;;22.42;75.79;99730.09;5013627;28;20546;-88
2021/09/09 09:03:53;;;;;;;7.20;4.85;;;;;;;22.49;76.79;99725.63;5013459;28;20439;-88
2021/09/09 09:06:21;;;;;;;9.25;4.88;;;;;;;22.47;76.77;99727.66;5012016;28;20476;-86
2021/09/09 09:09:03;;;;;;;5.22;4.20;;;;;;;22.41;78.11;99738.31;5013015;28;20065;-87
2021/09/09 09:11:32;;;;;;;6.47;4.35;;;;;;;22.40;79.17;99731.34;5012798;28;20105;-88
2021/09/09 09:13:58;;;;;;;6.63;4.80;;;;;;;22.42;79.28;99731.97;5013002;28;20052;-88
2021/09/09 09:16:24;;;;;;;5.63;4.32;;;;;;;22.37;78.62;99729.84;5012794;28;20424;-88
2021/09/09 09:18:50;;;;;;;6.40;4.10;;;;;;;22.50;78.62;99724.56;5010976;28;20030;-88
2021/09/09 09:21:17;;;;;;;5.07;3.78;;;;;;;22.71;77.89;99730.81;5012991;28;20026;-88
2021/09/09 09:23:48;;;;;;;5.63;4.18;;;;;;;22.85;77.52;99721.84;5012644;28;20033;-88
2021/09/09 09:26:14;;;;;;;7.88;4.50;;;;;;;22.79;78.50;99719.97;5012914;28;20033;-88
2021/09/09 09:28:42;;;;;;;6.00;4.40;;;;;;;22.89;78.71;99714.25;5012669;28;20041;-88
2021/09/09 09:31:10;;;;;;;5.22;3.75;;;;;;;22.79;78.18;99719.97;5012736;28;20542;-88
2021/09/09 09:33:42;;;;;;;6.00;3.75;;;;;;;22.93;76.92;99721.66;5012882;28;20065;-88
2021/09/09 09:36:19;;;;;;;8.38;3.63;;;;;;;22.86;78.22;99710.09;5012673;28;20080;-88
2021/09/09 09:38:45;;;;;;;3.95;3.28;;;;;;;22.88;77.25;99718.75;5012153;28;20037;-89
2021/09/09 09:41:11;;;;;;;3.53;2.78;;;;;;;22.91;77.07;99720.22;5011512;28;20041;-89
2021/09/09 09:43:37;;;;;;;4.63;2.63;;;;;;;22.73;77.55;99723.47;5012562;28;20030;-89
2021/09/09 09:46:05;;;;;;;4.22;2.65;;;;;;;22.60;78.22;99721.53;5011671;28;20385;-89
2021/09/09 09:48:33;;;;;;;4.82;3.13;;;;;;;22.49;79.43;99720.28;5012585;28;20037;-88
2021/09/09 09:51:02;;;;;;;4.40;3.13;;;;;;;22.47;80.36;99726.81;5012666;28;20033;-89
2021/09/09 09:53:29;;;;;;;4.40;3.40;;;;;;;22.54;79.72;99717.81;5012018;28;20424;-89
2021/09/09 09:55:55;;;;;;;3.72;3.33;;;;;;;22.54;81.01;99720.47;5012036;28;20033;-90
2021/09/09 09:58:20;;;;;;;4.68;3.13;;;;;;;22.77;80.14;99711.31;5012092;28;20034;-90
2021/09/09 10:00:46;;;;;;;5.35;3.20;;;;;;;22.84;79.87;99711.34;5012488;28;20046;-90
2021/09/09 10:03:15;;;;;;;4.03;2.60;;;;;;;22.83;79.86;99707.00;5010952;28;20075;-90
2021/09/09 10:05:40;;;;;;;3.88;2.53;;;;;;;22.88;79.52;99709.91;5012536;28;20072;-90
2021/09/09 10:08:07;;;;;;;3.75;2.90;;;;;;;22.84;79.43;99700.63;5011639;28;20100;-89
2021/09/09 10:10:33;;;;;;;9.60;3.30;;;;;;;22.89;78.82;99704.34;5012590;28;20018;-88
2021/09/09 10:14:20;;;;;;;3.67;3.08;;;;;;;22.82;79.35;99700.81;5069249;28;20399;-90
2021/09/09 10:16:46;;;;;;;3.35;2.38;;;;;;;22.71;81.22;99701.41;5052748;28;20108;-89
2021/09/09 10:19:13;;;;;;;8.07;2.83;;;;;;;22.74;82.44;99701.00;5048901;28;20036;-87
2021/09/09 10:21:46;;;;;;;4.53;2.85;;;;;;;22.95;81.19;99698.19;5043267;28;20028;-88
2021/09/09 10:24:27;;;;;;;3.65;2.90;;;;;;;23.19;81.33;99693.31;5046496;28;20040;-89
2021/09/09 10:27:18;;;;;;;3.00;2.42;;;;;;;23.31;80.99;99693.53;5048962;28;20033;-89
2021/09/09 10:29:46;;;;;;;2.40;1.92;;;;;;;23.07;80.52;99690.41;5029018;28;20038;-88
2021/09/09 10:32:31;;;;;;;3.53;2.20;;;;;;;23.24;80.05;99690.03;5029743;28;20029;-88
2021/09/09 10:35:18;;;;;;;3.38;1.70;;;;;;;23.26;79.26;99694.16;5041307;28;20045;-88
2021/09/09 10:37:47;;;;;;;4.60;1.90;;;;;;;22.97;80.17;99693.47;5048972;28;20033;-88
2021/09/09 10:40:27;;;;;;;3.65;1.83;;;;;;;23.06;81.05;99693.28;5068587;28;20029;-89
2021/09/09 10:42:53;;;;;;;3.25;1.92;;;;;;;23.10;81.20;99686.50;5060685;28;20114;-90
2021/09/09 10:45:45;;;;;;;3.22;1.70;;;;;;;23.63;79.37;99683.84;5048489;28;20435;-88
2021/09/09 10:48:22;;;;;;;3.47;2.47;;;;;;;23.65;81.09;99678.28;5045600;28;20503;-88
2021/09/09 10:50:59;;;;;;;3.20;2.33;;;;;;;23.67;83.24;99679.72;5047325;28;20029;-88
2021/09/09 10:53:55;;;;;;;2.78;2.10;;;;;;;23.91;80.78;99680.13;5048099;28;20025;-88
2021/09/09 10:56:32;;;;;;;2.55;1.95;;;;;;;24.15;79.24;99673.25;5047248;28;20479;-88
2021/09/09 10:59:09;;;;;;;3.08;1.83;;;;;;;24.39;79.01;99660.19;5028433;28;20030;-88
2021/09/09 11:01:36;;;;;;;3.17;1.88;;;;;;;24.26;76.59;99666.44;5032682;28;20026;-89
2021/09/09 11:04:02;;;;;;;3.80;2.10;;;;;;;24.30;76.16;99667.66;5048133;28;20029;-89
2021/09/09 11:06:29;;;;;;;2.72;1.52;;;;;;;24.43;75.26;99666.78;5048013;28;20036;-89
2021/09/09 11:09:10;;;;;;;2.00;1.80;;;;;;;24.65;76.11;99670.03;5046566;28;20112;-89
2021/09/09 11:11:36;;;;;;;;;;;;;;;24.70;74.27;99664.81;5048463;28;20526;-89
2021/09/09 11:14:03;;;;;;;2.72;1.73;;;;;;;24.77;74.74;99659.44;5047928;28;19917;-89
2021/09/09 11:16:35;;;;;;;3.03;1.58;;;;;;;25.27;73.57;99649.59;5047631;28;20025;-89
2021/09/09 11:19:01;;;;;;;5.13;2.00;;;;;;;25.53;70.98;99658.47;5046436;28;20639;-90
2021/09/09 11:21:30;;;;;;;2.95;1.80;;;;;;;25.73;69.33;99645.69;5047005;28;20424;-90